Time;durP1;ratioP1;P1;durP2;ratioP2;P2;SDS_P1;SDS_P2;PMS_P1;PMS_P2;Temp;Humidity;BMP_temperature;BMP_pressure;BME280_temperature;BME280_humidity;BME280_pressure;Samples;Min_cycle;Max_cycle;Signal;HPM_P1;HPM_P2
2021/04/23 05:01:32;;;;;;;;;;;;;;;4.97;100.00;98027.05;1767450;77;20504;-70
2021/04/23 05:04:01;;;;;;;;;;;;;;;5.03;100.00;98025.45;1771200;77;20599;-71
2021/04/23 05:06:29;;;;;;;;;;;;;;;5.06;100.00;98021.93;1772208;78;21873;-71
2021/04/23 05:08:56;;;;;;;;;;;;;;;5.09;100.00;98025.95;1773757;78;20807;-70
2021/04/23 05:11:24;;;;;;;;;;;;;;;5.11;100.00;98029.16;1789602;78;20335;-66
2021/04/23 05:13:54;;;;;;;;;;;;;;;5.13;100.00;98032.84;1802400;77;20642;-69
2021/04/23 05:16:23;;;;;;;;;;;;;;;5.14;100.00;98030.53;1765965;77;20762;-67
2021/04/23 05:18:51;;;;;;;;;;;;;;;5.16;100.00;98033.75;1750888;78;21962;-67
2021/04/23 05:21:20;;;;;;;;;;;;;;;5.14;100.00;98031.84;1732577;80;20468;-71
2021/04/23 05:23:48;;;;;;;;;;;;;;;5.13;100.00;98030.23;1752895;79;20546;-65
2021/04/23 05:26:15;;;;;;;;;;;;;;;5.15;100.00;98026.93;1748015;78;20616;-67
2021/04/23 05:28:44;;;;;;;;;;;;;;;5.16;100.00;98029.84;1701735;78;20759;-64
2021/04/23 05:31:13;;;;;;;;;;;;;;;5.16;100.00;98033.25;1753941;78;21914;-67
2021/04/23 05:33:42;;;;;;;;;;;;;;;5.14;100.00;98034.45;1758180;79;20396;-66
2021/04/23 05:36:10;;;;;;;;;;;;;;;5.14;100.00;98035.75;1749299;78;20467;-66
2021/04/23 05:38:38;;;;;;;;;;;;;;;5.19;100.00;98028.14;1747774;77;20630;-65
2021/04/23 05:41:06;;;;;;;;;;;;;;;5.25;100.00;98037.25;1774778;78;20533;-66
2021/04/23 05:43:34;;;;;;;;;;;;;;;5.32;100.00;98039.34;1778975;78;22101;-61
2021/04/23 05:46:01;;;;;;;;;;;;;;;5.41;100.00;98044.61;1720190;80;20687;-64
2021/04/23 05:48:29;;;;;;;;;;;;;;;5.50;100.00;98042.09;1773272;77;20529;-69
2021/04/23 05:50:57;;;;;;;;;;;;;;;5.59;97.47;98040.06;1772524;78;20528;-67
2021/04/23 05:53:25;;;;;;;;;;;;;;;5.67;97.48;98041.14;1780526;77;20475;-66
2021/04/23 05:55:53;;;;;;;;;;;;;;;5.77;94.82;98042.79;1789003;77;23534;-68
2021/04/23 05:58:21;;;;;;;;;;;;;;;5.88;93.34;98042.19;1774045;77;20555;-68
2021/04/23 06:00:50;;;;;;;;;;;;;;;5.98;83.01;98044.33;1753476;78;20465;-68
2021/04/23 06:03:18;;;;;;;;;;;;;;;6.09;82.08;98042.39;1769784;77;20604;-68
2021/04/23 06:05:45;;;;;;;;;;;;;;;6.17;79.49;98040.84;1745568;79;20825;-66
2021/04/23 06:08:14;;;;;;;;;;;;;;;6.28;79.02;98050.60;1720276;80;20985;-68
2021/04/23 06:10:42;;;;;;;;;;;;;;;6.39;76.43;98037.91;1770792;77;20534;-66
2021/04/23 06:13:10;;;;;;;;;;;;;;;6.46;75.00;98042.58;1781608;77;20673;-66
2021/04/23 06:15:38;;;;;;;;;;;;;;;6.52;73.57;98045.64;1776946;77;20492;-64
2021/04/23 06:18:05;;;;;;;;;;;;;;;6.57;74.32;98057.55;1787202;77;20623;-64
2021/04/23 06:20:34;;;;;;;;;;;;;;;6.64;75.45;98047.86;1782696;77;22559;-65
2021/04/23 06:23:02;;;;;;;;;;;;;;;6.71;76.00;98046.00;1759621;78;20575;-66
2021/04/23 06:25:30;;;;;;;;;;;;;;;6.79;76.52;98048.86;1733708;79;20551;-62
2021/04/23 06:27:58;;;;;;;;;;;;;;;6.87;75.43;98052.02;1755866;77;20303;-64
2021/04/23 06:30:28;;;;;;;;;;;;;;;6.94;74.24;98046.73;1772420;77;20608;-63
2021/04/23 06:32:56;;;;;;;;;;;;;;;6.97;74.22;98046.31;1765343;77;21980;-67
2021/04/23 06:35:25;;;;;;;;;;;;;;;7.07;73.14;98047.91;1781588;77;20595;-65
2021/04/23 06:37:53;;;;;;;;;;;;;;;7.14;71.45;98058.31;1764632;79;20591;-68
2021/04/23 06:40:21;;;;;;;;;;;;;;;7.17;72.71;98046.93;1766819;77;20566;-67
2021/04/23 06:42:50;;;;;;;;;;;;;;;7.22;72.17;98047.08;1694518;80;20742;-64
2021/04/23 06:45:19;;;;;;;;;;;;;;;7.26;71.01;98048.27;1777523;77;22409;-66
2021/04/23 06:47:47;;;;;;;;;;;;;;;7.32;71.29;98054.44;1775957;78;20470;-64
2021/04/23 06:50:17;;;;;;;;;;;;;;;7.38;71.71;98051.75;1777552;77;20308;-71
2021/04/23 06:52:45;;;;;;;;;;;;;;;7.47;71.97;98050.16;1760941;78;20483;-67
2021/04/23 06:55:14;;;;;;;;;;;;;;;7.57;69.38;98055.67;1752101;79;20871;-65
2021/04/23 06:57:42;;;;;;;;;;;;;;;7.62;68.94;98053.22;1778860;78;22111;-65
2021/04/23 07:00:13;;;;;;;;;;;;;;;7.67;68.65;98047.63;1800472;77;20475;-64
2021/04/23 07:02:41;;;;;;;;;;;;;;;7.71;67.15;98051.38;1767224;78;20849;-64
2021/04/23 07:05:10;;;;;;;;;;;;;;;7.75;66.20;98055.69;1775833;78;20413;-63
2021/04/23 07:07:38;;;;;;;;;;;;;;;7.73;63.95;98062.44;1773659;77;20614;-66
2021/04/23 07:10:08;;;;;;;;;;;;;;;7.71;66.41;98057.92;1763992;77;21903;-67
2021/04/23 07:12:36;;;;;;;;;;;;;;;7.70;66.69;98054.24;1774466;78;20584;-67
2021/04/23 07:15:14;;;;;;;;;;;;;;;7.72;67.05;98051.68;1776455;77;20647;-66
2021/04/23 07:17:43;;;;;;;;;;;;;;;7.76;66.89;98052.05;1769889;77;20431;-72
2021/04/23 07:20:13;;;;;;;;;;;;;;;7.83;67.76;98044.42;1780515;77;20476;-66
2021/04/23 07:22:41;;;;;;;;;;;;;;;7.89;65.64;98051.09;1791514;77;21756;-67
2021/04/23 07:25:09;;;;;;;;;;;;;;;7.93;64.53;98057.47;1760797;78;20528;-64
2021/04/23 07:27:37;;;;;;;;;;;;;;;7.94;62.75;98068.23;1757613;80;20641;-64
2021/04/23 07:30:06;;;;;;;;;;;;;;;7.97;62.65;98054.22;1757085;78;20553;-65
2021/04/23 07:32:36;;;;;;;;;;;;;;;7.97;63.57;98058.14;1750533;78;20298;-66
2021/04/23 07:35:06;;;;;;;;;;;;;;;7.97;63.82;98058.14;1733608;79;22189;-66
2021/04/23 07:37:34;;;;;;;;;;;;;;;7.99;64.78;98054.00;1750455;79;20574;-64
2021/04/23 07:40:06;;;;;;;;;;;;;;;8.05;64.50;98059.15;1783979;77;20297;-63
2021/04/23 07:42:34;;;;;;;;;;;;;;;8.13;65.14;98056.23;1783032;77;20583;-63
2021/04/23 07:45:04;;;;;;;;;;;;;;;8.23;63.51;98068.77;1773921;77;20562;-67
2021/04/23 07:47:32;;;;;;;;;;;;;;;8.28;62.08;98063.69;1773360;78;20783;-66
2021/04/23 07:50:00;;;;;;;;;;;;;;;8.29;61.08;98068.39;1783014;77;20473;-67
2021/04/23 07:52:28;;;;;;;;;;;;;;;8.28;61.64;98068.92;1774983;78;20497;-66
2021/04/23 07:54:57;;;;;;;;;;;;;;;8.30;61.77;98074.72;1770660;78;20642;-69
2021/04/23 07:57:25;;;;;;;;;;;;;;;8.35;60.32;98077.52;1768222;77;20612;-66
2021/04/23 07:59:53;;;;;;;;;;;;;;;8.48;62.91;98071.30;1770956;77;21901;-68
2021/04/23 08:02:21;;;;;;;;;;;;;;;8.63;61.46;98063.83;1737393;79;20651;-68
2021/04/23 08:04:49;;;;;;;;;;;;;;;8.78;61.45;98073.37;1719157;80;20611;-70
2021/04/23 08:07:17;;;;;;;;;;;;;;;8.90;60.39;98074.19;1763025;77;20406;-66
2021/04/23 08:09:47;;;;;;;;;;;;;;;8.94;61.73;98079.77;1776707;78;20234;-66
2021/04/23 08:12:17;;;;;;;;;;;;;;;8.87;59.15;98089.04;1790786;77;20643;-69
2021/04/23 08:14:45;;;;;;;;;;;;;;;8.78;57.54;98084.37;1762017;78;20388;-67
2021/04/23 08:17:14;;;;;;;;;;;;;;;8.76;57.96;98083.79;1780705;77;20586;-65
2021/04/23 08:19:43;;;;;;;;;;;;;;;8.80;56.46;98088.85;1779668;77;20327;-71
2021/04/23 08:22:13;;;;;;;;;;;;;;;8.81;56.78;98096.50;1789859;77;20575;-66
2021/04/23 08:24:42;;;;;;;;;;;;;;;8.78;54.80;98096.16;1782194;77;21900;-70
2021/04/23 08:27:10;;;;;;;;;;;;;;;8.77;54.89;98085.39;1772160;77;20516;-70
2021/04/23 08:29:39;;;;;;;;;;;;;;;8.79;51.62;98088.59;1779017;77;20404;-68
2021/04/23 08:32:07;;;;;;;;;;;;;;;8.84;52.71;98088.70;1773504;77;20281;-68
2021/04/23 08:34:36;;;;;;;;;;;;;;;8.96;50.63;98086.89;1780246;77;20572;-70
2021/04/23 08:37:05;;;;;;;;;;;;;;;9.05;52.63;98095.23;1755013;78;21941;-69
2021/04/23 08:39:33;;;;;;;;;;;;;;;9.07;52.86;98099.23;1782742;77;20493;-67
2021/04/23 08:42:02;;;;;;;;;;;;;;;9.03;53.59;98098.59;1770370;78;20487;-70
2021/04/23 08:44:31;;;;;;;;;;;;;;;9.07;53.46;98097.92;1779059;78;20492;-71
2021/04/23 08:47:00;;;;;;;;;;;;;;;9.19;54.30;98100.55;1793678;77;20763;-67
2021/04/23 08:49:29;;;;;;;;;;;;;;;9.30;51.78;98103.68;1771948;77;21932;-69
2021/04/23 08:51:58;;;;;;;;;;;;;;;9.30;51.26;98099.75;1744189;78;20282;-70
2021/04/23 08:54:26;;;;;;;;;;;;;;;9.33;52.27;98103.23;1726672;79;20390;-69
2021/04/23 08:56:54;;;;;;;;;;;;;;;9.33;51.79;98099.30;1789303;77;20603;-66
2021/04/23 08:59:22;;;;;;;;;;;;;;;9.26;50.59;98099.42;1791400;77;20480;-70
2021/04/23 09:01:50;;;;;;;;;;;;;;;9.23;51.89;98093.81;1787271;77;22115;-66
2021/04/23 09:04:18;;;;;;;;;;;;;;;9.29;52.46;98097.63;1776995;77;20682;-71
2021/04/23 09:07:02;;;;;;;;;;;;;;;9.51;52.07;98088.68;1784366;78;20308;-69
2021/04/23 09:09:35;;;;;;;;;;;;;;;9.75;52.32;98086.84;1773637;77;20596;-70
2021/04/23 09:12:07;;;;;;;;;;;;;;;10.02;51.45;98085.80;1782469;77;20720;-70
2021/04/23 09:14:35;;;;;;;;;;;;;;;10.06;50.83;98090.38;1780296;78;22524;-68
2021/04/23 09:17:04;;;;;;;;;;;;;;;9.97;51.12;98082.57;1771345;77;20608;-68
2021/04/23 09:19:35;;;;;;;;;;;;;;;9.90;50.68;98088.47;1764811;78;20618;-66
2021/04/23 09:22:05;;;;;;;;;;;;;;;9.82;51.44;98086.20;1780979;77;20564;-68
2021/04/23 09:24:38;;;;;;;;;;;;;;;9.84;51.88;98082.03;1782779;77;20611;-69
2021/04/23 09:27:17;;;;;;;;;;;;;;;9.88;51.26;98085.27;1753287;77;22110;-71
2021/04/23 09:29:46;;;;;;;;;;;;;;;9.90;49.24;98081.91;1742399;80;20849;-67
2021/04/23 09:32:18;;;;;;;;;;;;;;;9.94;49.02;98080.40;1785977;77;20495;-71
2021/04/23 09:34:59;;;;;;;;;;;;;;;9.98;50.44;98080.74;1770869;77;38806;-67
2021/04/23 09:37:30;;;;;;;;;;;;;;;10.03;49.96;98079.52;1788052;77;20588;-67
2021/04/23 09:40:13;;;;;;;;;;;;;;;10.07;49.14;98089.86;1775768;76;21927;-67
2021/04/23 09:42:46;;;;;;;;;;;;;;;10.12;49.98;98080.76;1774446;78;20636;-69
2021/04/23 09:45:15;;;;;;;;;;;;;;;10.21;49.68;98082.54;1750182;78;20563;-69
2021/04/23 09:47:43;;;;;;;;;;;;;;;10.26;49.36;98074.23;1801102;76;20478;-68
2021/04/23 09:50:12;;;;;;;;;;;;;;;10.22;49.50;98083.62;1781884;77;20461;-65
2021/04/23 09:52:51;;;;;;;;;;;;;;;10.28;49.85;98071.38;1787707;77;20760;-67
2021/04/23 09:55:23;;;;;;;;;;;;;;;10.44;49.08;98073.26;1779284;77;20259;-65
2021/04/23 09:57:56;;;;;;;;;;;;;;;10.55;48.57;98073.19;1798012;77;20511;-66
2021/04/23 10:00:26;;;;;;;;;;;;;;;10.63;48.81;98068.06;1771525;77;20400;-66
2021/04/23 10:02:57;;;;;;;;;;;;;;;10.73;48.22;98064.83;1798074;77;20539;-66
2021/04/23 10:05:29;;;;;;;;;;;;;;;10.83;48.01;98063.66;1799612;77;22068;-68
2021/04/23 10:07:57;;;;;;;;;;;;;;;10.89;47.83;98054.30;1778992;77;21240;-66
2021/04/23 10:10:25;;;;;;;;;;;;;;;10.88;45.58;98070.30;1783149;77;20505;-66
2021/04/23 10:12:58;;;;;;;;;;;;;;;10.83;47.10;98057.09;1774001;77;20485;-67
2021/04/23 10:15:29;;;;;;;;;;;;;;;10.78;46.37;98056.50;1774942;77;20550;-66
2021/04/23 10:17:58;;;;;;;;;;;;;;;10.82;46.53;98047.60;1775605;77;21629;-65
2021/04/23 10:20:31;;;;;;;;;;;;;;;10.89;45.83;98046.41;1778634;77;20561;-64
2021/04/23 10:23:01;;;;;;;;;;;;;;;11.00;46.91;98046.06;1800530;77;20485;-66
2021/04/23 10:25:29;;;;;;;;;;;;;;;11.07;46.14;98051.16;1796256;78;20606;-67
2021/04/23 10:28:00;;;;;;;;;;;;;;;11.05;45.79;98054.02;1793749;77;20551;-65
2021/04/23 10:30:31;;;;;;;;;;;;;;;10.97;46.38;98045.22;1772176;77;22060;-70
2021/04/23 10:33:03;;;;;;;;;;;;;;;10.90;46.29;98041.95;1810210;76;20403;-64
2021/04/23 10:35:31;;;;;;;;;;;;;;;10.90;48.09;98035.37;1789489;77;20498;-61
2021/04/23 10:38:01;;;;;;;;;;;;;;;11.05;46.50;98038.24;1792778;77;20511;-64
2021/04/23 10:40:29;;;;;;;;;;;;;;;11.12;46.33;98044.13;1769262;77;20781;-64
2021/04/23 10:43:00;;;;;;;;;;;;;;;11.09;46.04;98049.89;1779223;76;21772;-65
2021/04/23 10:45:42;;;;;;;;;;;;;;;11.12;46.92;98044.65;1787776;77;20211;-63
2021/04/23 10:48:17;;;;;;;;;;;;;;;11.08;47.38;98043.55;1767955;78;20523;-64
2021/04/23 10:50:48;;;;;;;;;;;;;;;11.00;46.28;98038.69;1786808;77;20627;-64
2021/04/23 10:53:28;;;;;;;;;;;;;;;10.95;45.41;98042.02;1789600;77;20684;-65
2021/04/23 10:55:59;;;;;;;;;;;;;;;10.91;45.97;98036.45;1782590;77;21729;-69
2021/04/23 10:58:30;;;;;;;;;;;;;;;10.90;46.11;98033.55;1785262;76;20765;-66
2021/04/23 11:01:15;;;;;;;;;;;;;;;10.95;46.32;98025.72;1782329;76;20563;-64
2021/04/23 11:03:44;;;;;;;;;;;;;;;11.10;46.72;98026.98;1766948;77;20322;-65
2021/04/23 11:06:16;;;;;;;;;;;;;;;11.32;46.62;98019.42;1792756;77;20333;-64
2021/04/23 11:09:04;;;;;;;;;;;;;;;11.47;45.02;98024.61;1767134;78;22057;-70
2021/04/23 11:11:37;;;;;;;;;;;;;;;11.47;44.50;98020.15;1783960;77;20576;-62
2021/04/23 11:14:28;;;;;;;;;;;;;;;11.44;45.58;98013.27;1782616;77;20497;-67
2021/04/23 11:17:18;;;;;;;;;;;;;;;11.32;45.06;98019.94;1788126;77;20488;-67
2021/04/23 11:19:48;;;;;;;;;;;;;;;11.15;45.22;98019.19;1780357;77;20612;-63
2021/04/23 11:22:17;;;;;;;;;;;;;;;11.16;46.20;98015.53;1753776;79;21896;-64
2021/04/23 11:25:17;;;;;;;;;;;;;;;11.20;45.00;98015.30;1798433;76;20747;-67
2021/04/23 11:28:08;;;;;;;;;;;;;;;11.18;43.55;98029.21;1788265;77;20600;-65
2021/04/23 11:31:07;;;;;;;;;;;;;;;11.16;42.61;98014.21;1790545;77;20496;-65
2021/04/23 11:33:47;;;;;;;;;;;;;;;11.13;43.63;98014.68;1793994;77;20284;-66
2021/04/23 11:36:22;;;;;;;;;;;;;;;11.22;43.91;98006.66;1805636;77;21841;-64
2021/04/23 11:38:55;;;;;;;;;;;;;;;11.25;44.14;98015.38;1793531;75;20660;-64
2021/04/23 11:41:23;;;;;;;;;;;;;;;11.22;43.04;98019.30;1789524;77;20484;-65
2021/04/23 11:43:53;;;;;;;;;;;;;;;11.18;43.94;98023.44;1798074;77;20472;-66
2021/04/23 11:46:49;;;;;;;;;;;;;;;11.17;43.64;98017.89;1800480;77;20595;-65
2021/04/23 11:49:18;;;;;;;;;;;;;;;11.17;44.80;98023.67;1801402;77;22166;-67
2021/04/23 11:51:50;;;;;;;;;;;;;;;11.22;44.48;98024.56;1803851;75;20569;-68
2021/04/23 11:54:33;;;;;;;;;;;;;;;11.14;45.15;98021.54;1795838;77;20369;-67
2021/04/23 11:57:03;;;;;;;;;;;;;;;11.07;45.74;98032.23;1796650;77;20486;-68
2021/04/23 11:59:32;;;;;;;;;;;;;;;11.14;44.94;98021.02;1788705;77;20584;-63
2021/04/23 12:02:00;;;;;;;;;;;;;;;11.32;45.89;98023.38;1787793;77;21832;-65
2021/04/23 12:04:46;;;;;;;;;;;;;;;11.47;45.19;98030.67;1803769;77;20434;-65
2021/04/23 12:07:14;;;;;;;;;;;;;;;11.46;45.01;98028.28;1801414;77;20454;-63
2021/04/23 12:09:42;;;;;;;;;;;;;;;11.37;45.87;98025.30;1757448;77;20488;-67
2021/04/23 12:12:13;;;;;;;;;;;;;;;11.38;45.79;98034.78;1788020;77;20564;-64
2021/04/23 12:14:46;;;;;;;;;;;;;;;11.39;48.03;98033.72;1797339;77;21749;-65
2021/04/23 12:17:16;;;;;;;;;;;;;;;11.38;46.23;98021.63;1796076;77;20215;-64
2021/04/23 12:19:46;;;;;;;;;;;;;;;11.38;47.25;98027.41;1793298;77;20485;-64
2021/04/23 12:22:14;;;;;;;;;;;;;;;11.33;47.22;98021.02;1811338;77;20482;-70
2021/04/23 12:24:42;;;;;;;;;;;;;;;11.29;47.05;98026.50;1801251;76;20570;-72
2021/04/23 12:27:10;;;;;;;;;;;;;;;11.25;47.02;98019.31;1798468;77;20894;-69
2021/04/23 12:29:38;;;;;;;;;;;;;;;11.27;47.24;98019.36;1807842;77;20475;-68
2021/04/23 12:32:08;;;;;;;;;;;;;;;11.33;46.76;98017.59;1733521;80;20489;-69
2021/04/23 12:34:39;;;;;;;;;;;;;;;11.31;46.63;98007.82;1769078;78;20748;-69
2021/04/23 12:37:08;;;;;;;;;;;;;;;11.29;46.16;98027.81;1747257;80;20692;-66
2021/04/23 12:39:38;;;;;;;;;;;;;;;11.30;45.72;98022.04;1776743;76;22054;-64
2021/04/23 12:42:07;;;;;;;;;;;;;;;11.32;46.04;98018.63;1772909;77;20421;-69
2021/04/23 12:47:10;;;;;;;;;;;;;;;11.38;45.29;98005.84;1759927;77;20794;-64
2021/04/23 12:49:42;;;;;;;;;;;;;;;11.42;46.04;98008.25;1789478;77;20872;-67
2021/04/23 12:52:15;;;;;;;;;;;;;;;11.33;45.43;98010.49;1770440;77;21876;-68
2021/04/23 12:54:45;;;;;;;;;;;;;;;11.27;47.51;98017.25;1766931;78;20645;-66
